Time;durP1;ratioP1;P1;durP2;ratioP2;P2;SDS_P1;SDS_P2;PMS_P1;PMS_P2;Temp;Humidity;BMP_temperature;BMP_pressure;BME280_temperature;BME280_humidity;BME280_pressure;Samples;Min_cycle;Max_cycle;Signal;HPM_P1;HPM_P2
2022/02/19 00:00:28;;;;;;;16.30;5.90;;;;;;;;;;4957487;29;20130;-70
2022/02/19 00:02:56;;;;;;;16.13;5.82;;;;;;;;;;4940290;29;20047;-70
2022/02/19 00:05:24;;;;;;;12.00;5.90;;;;;;;;;;4940107;29;20135;-69
2022/02/19 00:07:53;;;;;;;15.82;6.55;;;;;;;;;;4939633;29;20058;-70
2022/02/19 00:10:21;;;;;;;10.48;5.80;;;;;;;;;;4957228;29;20513;-70
2022/02/19 00:12:48;;;;;;;11.23;5.55;;;;;;;;;;4957309;29;20052;-71
2022/02/19 00:15:16;;;;;;;11.45;6.22;;;;;;;;;;4957020;29;20065;-70
2022/02/19 00:17:43;;;;;;;13.48;6.35;;;;;;;;;;4940040;29;20578;-69
2022/02/19 00:20:13;;;;;;;11.05;5.88;;;;;;;;;;4956815;29;20546;-69
2022/02/19 00:22:40;;;;;;;14.68;6.00;;;;;;;;;;4956896;29;20098;-71
2022/02/19 00:25:09;;;;;;;12.88;6.13;;;;;;;;;;4956959;29;20051;-70
2022/02/19 00:27:37;;;;;;;14.15;5.85;;;;;;;;;;4956978;29;20059;-70
2022/02/19 00:30:05;;;;;;;11.57;5.75;;;;;;;;;;4956712;29;20054;-71
2022/02/19 00:32:33;;;;;;;10.73;5.07;;;;;;;;;;4956374;29;20106;-69
2022/02/19 00:35:01;;;;;;;11.30;5.97;;;;;;;;;;4939560;29;20050;-71
2022/02/19 00:37:29;;;;;;;9.32;5.68;;;;;;;;;;4956640;29;20043;-70
2022/02/19 00:39:56;;;;;;;8.00;4.70;;;;;;;;;;4956714;29;20043;-70
2022/02/19 00:42:24;;;;;;;8.52;5.05;;;;;;;;;;4938533;29;20051;-69
2022/02/19 00:44:52;;;;;;;11.32;5.50;;;;;;;;;;4938972;29;20074;-71
2022/02/19 00:47:19;;;;;;;9.68;5.25;;;;;;;;;;4956768;28;20039;-69
2022/02/19 00:49:47;;;;;;;14.32;6.03;;;;;;;;;;4975795;28;20047;-70
2022/02/19 00:52:14;;;;;;;7.40;4.78;;;;;;;;;;4955363;28;20054;-71
2022/02/19 00:54:43;;;;;;;11.95;5.07;;;;;;;;;;4975734;28;20051;-70
2022/02/19 00:57:14;;;;;;;12.57;4.85;;;;;;;;;;4957934;28;20073;-69
2022/02/19 00:59:41;;;;;;;11.85;5.10;;;;;;;;;;4958189;28;20138;-70
2022/02/19 01:02:10;;;;;;;12.05;4.60;;;;;;;;;;4973617;28;20564;-70
2022/02/19 01:05:15;;;;;;;7.68;4.40;;;;;;;;;;4965932;28;20054;-71
2022/02/19 01:07:43;;;;;;;10.00;4.45;;;;;;;;;;4970668;28;20533;-70
2022/02/19 01:10:10;;;;;;;7.93;4.88;;;;;;;;;;4974450;28;20066;-70
2022/02/19 01:12:40;;;;;;;10.52;4.55;;;;;;;;;;4957981;28;20054;-69
2022/02/19 01:15:11;;;;;;;8.68;4.43;;;;;;;;;;4957983;28;20050;-70
2022/02/19 01:17:39;;;;;;;9.00;4.43;;;;;;;;;;4934522;29;20044;-70
2022/02/19 01:20:08;;;;;;;7.45;4.03;;;;;;;;;;4956047;29;20074;-70
2022/02/19 01:22:42;;;;;;;8.75;4.63;;;;;;;;;;4955092;29;20063;-71
2022/02/19 01:25:10;;;;;;;13.52;6.28;;;;;;;;;;4956367;29;20051;-70
2022/02/19 01:27:43;;;;;;;13.45;4.10;;;;;;;;;;4956122;29;20507;-70
2022/02/19 01:30:15;;;;;;;14.63;4.80;;;;;;;;;;4938813;29;20518;-69
2022/02/19 01:32:43;;;;;;;10.45;4.20;;;;;;;;;;4938260;29;20047;-70
2022/02/19 01:35:11;;;;;;;9.60;4.45;;;;;;;;;;4938064;29;20043;-70
2022/02/19 01:37:39;;;;;;;8.90;4.05;;;;;;;;;;4938557;29;20055;-70
2022/02/19 01:40:08;;;;;;;8.77;4.47;;;;;;;;;;4938647;29;20083;-69
2022/02/19 01:42:40;;;;;;;7.90;4.25;;;;;;;;;;4938415;29;20047;-70
2022/02/19 01:45:11;;;;;;;11.82;4.68;;;;;;;;;;4938425;29;20043;-70
2022/02/19 01:47:41;;;;;;;6.50;3.85;;;;;;;;;;4938778;29;20055;-70
2022/02/19 01:50:14;;;;;;;9.32;3.85;;;;;;;;;;4938149;29;20055;-70
2022/02/19 01:52:47;;;;;;;9.38;3.80;;;;;;;;;;4955477;28;20073;-70
2022/02/19 01:55:25;;;;;;;14.85;4.07;;;;;;;;;;4938224;29;20071;-70
2022/02/19 01:58:29;;;;;;;9.85;4.18;;;;;;;;;;4944516;29;20054;-69
2022/02/19 02:01:14;;;;;;;8.57;3.88;;;;;;;;;;4938129;29;20058;-70
2022/02/19 02:04:00;;;;;;;8.07;4.32;;;;;;;;;;4955444;29;20182;-70
2022/02/19 02:06:31;;;;;;;8.15;3.30;;;;;;;;;;4938378;29;20090;-70
2022/02/19 02:09:04;;;;;;;7.38;3.63;;;;;;;;;;4937813;29;20098;-69
2022/02/19 02:11:37;;;;;;;7.60;4.00;;;;;;;;;;4937771;29;20459;-70
2022/02/19 02:14:09;;;;;;;7.38;3.65;;;;;;;;;;4937759;29;20531;-70
2022/02/19 02:16:59;;;;;;;7.00;3.42;;;;;;;;;;4954618;29;20055;-70
2022/02/19 02:19:27;;;;;;;8.00;3.45;;;;;;;;;;4937515;29;20046;-70
2022/02/19 02:22:04;;;;;;;4.85;3.17;;;;;;;;;;4937912;29;20100;-69
2022/02/19 02:24:36;;;;;;;6.50;3.20;;;;;;;;;;4955263;29;20067;-70
2022/02/19 02:27:07;;;;;;;7.03;3.25;;;;;;;;;;4954797;29;20121;-70
2022/02/19 02:29:45;;;;;;;11.70;3.80;;;;;;;;;;4937540;29;20141;-69
2022/02/19 02:32:15;;;;;;;8.50;3.40;;;;;;;;;;4937211;29;20439;-69
2022/02/19 02:34:47;;;;;;;8.52;3.75;;;;;;;;;;4937412;29;20051;-70
2022/02/19 02:37:17;;;;;;;8.25;3.50;;;;;;;;;;4954736;29;20039;-69
2022/02/19 02:39:46;;;;;;;9.38;3.40;;;;;;;;;;4937927;29;20510;-70
2022/02/19 02:42:16;;;;;;;5.57;3.72;;;;;;;;;;4954762;29;20082;-69
2022/02/19 02:44:44;;;;;;;8.77;3.70;;;;;;;;;;4937058;29;20039;-68
2022/02/19 02:47:33;;;;;;;7.28;3.55;;;;;;;;;;4924168;29;20050;-68
2022/02/19 02:50:00;;;;;;;8.80;3.88;;;;;;;;;;4937141;29;20059;-70
2022/02/19 02:52:28;;;;;;;6.03;3.72;;;;;;;;;;4937399;29;20043;-69
2022/02/19 02:54:57;;;;;;;7.65;3.65;;;;;;;;;;4954497;29;20449;-69
2022/02/19 02:57:27;;;;;;;7.00;3.58;;;;;;;;;;4936911;29;20051;-69
2022/02/19 02:59:54;;;;;;;8.38;3.80;;;;;;;;;;4937197;29;20070;-69
2022/02/19 03:02:23;;;;;;;7.18;3.58;;;;;;;;;;4954752;29;20071;-69
2022/02/19 03:04:51;;;;;;;8.70;3.60;;;;;;;;;;4939229;29;20047;-69
2022/02/19 03:07:18;;;;;;;9.38;3.70;;;;;;;;;;4941457;29;20102;-70
2022/02/19 03:09:46;;;;;;;7.03;3.90;;;;;;;;;;4940974;29;20044;-69
2022/02/19 03:12:13;;;;;;;10.68;3.80;;;;;;;;;;4958251;29;20043;-69
2022/02/19 03:14:41;;;;;;;9.52;4.00;;;;;;;;;;4941463;29;20054;-69
2022/02/19 03:17:09;;;;;;;8.15;3.60;;;;;;;;;;4940416;29;20094;-69
2022/02/19 03:19:36;;;;;;;8.85;3.80;;;;;;;;;;4940734;29;20094;-69
2022/02/19 03:22:04;;;;;;;7.35;3.72;;;;;;;;;;4957071;29;20066;-70
2022/02/19 03:24:32;;;;;;;7.20;3.53;;;;;;;;;;4941088;29;20531;-70
2022/02/19 03:27:05;;;;;;;5.50;3.65;;;;;;;;;;4940731;29;20130;-69
2022/02/19 03:29:35;;;;;;;6.60;3.72;;;;;;;;;;4940589;29;20098;-70
2022/02/19 03:32:06;;;;;;;7.28;3.80;;;;;;;;;;4940200;29;20055;-69
2022/02/19 03:34:36;;;;;;;7.53;4.00;;;;;;;;;;4957833;29;20070;-69
2022/02/19 03:37:05;;;;;;;8.30;4.03;;;;;;;;;;4940638;29;20514;-69
2022/02/19 03:39:34;;;;;;;7.90;3.95;;;;;;;;;;4940313;29;20039;-69
2022/02/19 03:42:02;;;;;;;10.60;4.40;;;;;;;;;;4940588;29;20388;-69
2022/02/19 03:44:32;;;;;;;6.50;3.88;;;;;;;;;;4940074;29;20499;-69
2022/02/19 03:47:09;;;;;;;8.95;4.57;;;;;;;;;;4940552;29;20089;-69
2022/02/19 03:49:59;;;;;;;8.48;5.18;;;;;;;;;;4957041;29;20127;-69
2022/02/19 03:52:27;;;;;;;7.00;4.28;;;;;;;;;;4940134;29;20051;-69
2022/02/19 03:54:55;;;;;;;7.30;4.72;;;;;;;;;;4940485;29;20050;-69
2022/02/19 03:57:22;;;;;;;10.20;4.30;;;;;;;;;;4935047;28;20568;-69
2022/02/19 03:59:53;;;;;;;8.63;4.07;;;;;;;;;;4959410;28;20055;-69
2022/02/19 04:02:21;;;;;;;8.77;4.15;;;;;;;;;;4959497;28;20070;-69
2022/02/19 04:04:50;;;;;;;15.35;4.40;;;;;;;;;;4959149;28;20093;-68
2022/02/19 04:07:19;;;;;;;9.13;4.43;;;;;;;;;;4959448;28;20054;-69
2022/02/19 04:09:54;;;;;;;8.15;3.92;;;;;;;;;;4958970;28;20054;-69
2022/02/19 04:12:22;;;;;;;8.65;3.90;;;;;;;;;;4959725;28;20070;-69
2022/02/19 04:14:54;;;;;;;8.90;4.57;;;;;;;;;;4959132;28;20054;-71
2022/02/19 04:17:22;;;;;;;7.93;4.05;;;;;;;;;;4957918;28;20053;-70
2022/02/19 04:19:52;;;;;;;11.18;3.90;;;;;;;;;;4958974;28;20498;-69
2022/02/19 04:22:20;;;;;;;10.30;3.80;;;;;;;;;;4959071;28;20061;-69
2022/02/19 04:24:49;;;;;;;7.55;3.55;;;;;;;;;;4976605;28;20127;-69
2022/02/19 04:27:22;;;;;;;5.55;3.60;;;;;;;;;;4959244;28;20133;-69
2022/02/19 04:29:50;;;;;;;10.30;3.72;;;;;;;;;;4959220;28;20073;-70
2022/02/19 04:32:18;;;;;;;7.10;3.20;;;;;;;;;;4951331;28;20526;-69
2022/02/19 04:34:57;;;;;;;6.57;3.35;;;;;;;;;;4958595;28;20422;-70
2022/02/19 04:37:25;;;;;;;5.95;3.13;;;;;;;;;;4943172;28;20080;-69
2022/02/19 04:39:53;;;;;;;7.28;4.18;;;;;;;;;;4958726;28;20050;-70
2022/02/19 04:42:34;;;;;;;6.93;2.60;;;;;;;;;;4958822;28;20094;-70
2022/02/19 04:45:18;;;;;;;4.93;2.45;;;;;;;;;;4958829;28;20050;-69
2022/02/19 04:47:53;;;;;;;2.63;2.38;;;;;;;;;;4958414;28;20043;-70
2022/02/19 04:50:23;;;;;;;6.50;2.65;;;;;;;;;;4958490;28;20070;-70
2022/02/19 04:52:53;;;;;;;5.20;2.70;;;;;;;;;;4958236;28;20133;-70
2022/02/19 04:55:22;;;;;;;4.53;2.58;;;;;;;;;;4958490;28;20053;-70
2022/02/19 04:57:50;;;;;;;7.38;2.70;;;;;;;;;;4957973;28;20058;-69
2022/02/19 05:00:19;;;;;;;4.03;2.50;;;;;;;;;;4958221;28;20532;-69
2022/02/19 05:03:19;;;;;;;5.57;2.90;;;;;;;;;;4943269;28;20594;-69
2022/02/19 05:05:58;;;;;;;6.68;2.47;;;;;;;;;;4958348;28;20053;-69
2022/02/19 05:08:26;;;;;;;3.47;1.85;;;;;;;;;;4958372;28;20043;-69
2022/02/19 05:10:53;;;;;;;4.55;2.03;;;;;;;;;;4975184;28;20051;-69
2022/02/19 05:13:32;;;;;;;3.92;2.30;;;;;;;;;;4958205;28;20074;-69
2022/02/19 05:16:02;;;;;;;2.95;2.00;;;;;;;;;;4957880;28;20050;-70
2022/02/19 05:18:40;;;;;;;2.08;1.88;;;;;;;;;;4957930;28;20047;-69
2022/02/19 05:21:08;;;;;;;3.08;1.85;;;;;;;;;;4957394;28;20531;-69
2022/02/19 05:23:41;;;;;;;6.20;2.05;;;;;;;;;;4957890;28;20574;-69
2022/02/19 05:26:15;;;;;;;3.22;1.88;;;;;;;;;;4957878;28;20046;-69
2022/02/19 05:28:43;;;;;;;4.93;2.22;;;;;;;;;;4957415;28;20053;-69
2022/02/19 05:31:12;;;;;;;4.60;1.90;;;;;;;;;;4974916;28;20129;-70
2022/02/19 05:33:54;;;;;;;4.38;2.08;;;;;;;;;;4957647;28;20046;-69
2022/02/19 05:36:25;;;;;;;3.90;1.90;;;;;;;;;;4957820;28;20046;-69
2022/02/19 05:38:54;;;;;;;2.15;1.90;;;;;;;;;;4958421;28;20046;-69
2022/02/19 05:41:24;;;;;;;3.20;1.95;;;;;;;;;;4957719;28;20054;-69
2022/02/19 05:43:52;;;;;;;3.70;2.05;;;;;;;;;;4957630;28;20094;-69
2022/02/19 05:46:22;;;;;;;2.25;1.80;;;;;;;;;;4974391;28;20039;-69
2022/02/19 05:48:51;;;;;;;2.90;2.00;;;;;;;;;;4957580;28;20043;-70
2022/02/19 05:51:44;;;;;;;5.53;2.40;;;;;;;;;;4974399;28;20052;-70
2022/02/19 05:54:17;;;;;;;4.88;2.70;;;;;;;;;;4957379;28;20043;-69
2022/02/19 05:56:50;;;;;;;5.63;4.47;;;;;;;;;;4956734;28;20447;-69
2022/02/19 05:59:18;;;;;;;9.00;4.03;;;;;;;;;;4957345;28;20077;-70
2022/02/19 06:01:46;;;;;;;7.93;5.10;;;;;;;;;;4956897;28;20447;-70
2022/02/19 06:04:13;;;;;;;17.73;6.82;;;;;;;;;;4957524;28;20045;-69
2022/02/19 06:06:43;;;;;;;5.25;2.58;;;;;;;;;;4956982;28;20073;-69
2022/02/19 06:09:10;;;;;;;4.72;2.38;;;;;;;;;;4957344;28;20050;-70
2022/02/19 06:11:40;;;;;;;5.45;2.45;;;;;;;;;;4957297;28;20141;-71
2022/02/19 06:14:18;;;;;;;6.28;3.47;;;;;;;;;;4974565;28;20050;-70
2022/02/19 06:16:53;;;;;;;3.80;2.67;;;;;;;;;;4957421;28;20097;-70
2022/02/19 06:19:23;;;;;;;4.35;2.85;;;;;;;;;;4957058;28;20446;-70
2022/02/19 06:21:50;;;;;;;7.20;3.65;;;;;;;;;;4956961;28;20489;-70
2022/02/19 06:24:20;;;;;;;8.18;4.13;;;;;;;;;;4957237;28;20050;-70
2022/02/19 06:26:55;;;;;;;4.75;3.40;;;;;;;;;;4955912;28;20101;-70
2022/02/19 06:29:46;;;;;;;8.02;3.88;;;;;;;;;;4958520;28;20066;-70
2022/02/19 06:32:15;;;;;;;9.50;4.00;;;;;;;;;;4955369;28;20058;-70
2022/02/19 06:34:48;;;;;;;8.52;5.30;;;;;;;;;;4950134;28;20085;-70
2022/02/19 06:37:22;;;;;;;11.55;5.05;;;;;;;;;;4953567;28;20043;-69
2022/02/19 06:39:52;;;;;;;12.90;5.47;;;;;;;;;;4972079;28;20038;-69
2022/02/19 06:42:20;;;;;;;10.15;5.55;;;;;;;;;;4973145;28;20078;-70
2022/02/19 06:45:17;;;;;;;12.52;6.57;;;;;;;;;;4959226;28;20054;-69
2022/02/19 06:47:47;;;;;;;12.32;7.05;;;;;;;;;;4944435;29;20180;-69
2022/02/19 06:50:20;;;;;;;12.30;7.68;;;;;;;;;;4935053;29;20053;-70
2022/02/19 06:52:51;;;;;;;10.15;5.90;;;;;;;;;;4937392;29;20043;-69
2022/02/19 06:55:22;;;;;;;8.50;4.80;;;;;;;;;;4937424;29;20051;-71
2022/02/19 06:57:51;;;;;;;9.55;4.32;;;;;;;;;;4937530;29;20142;-69
2022/02/19 07:00:21;;;;;;;8.80;3.88;;;;;;;;;;4937135;29;20047;-69
2022/02/19 07:02:57;;;;;;;9.82;4.57;;;;;;;;;;4954873;29;20047;-70
2022/02/19 07:05:29;;;;;;;9.18;4.57;;;;;;;;;;4955057;28;20047;-69
2022/02/19 07:08:15;;;;;;;7.97;4.40;;;;;;;;;;4943254;28;20039;-71
2022/02/19 07:10:43;;;;;;;11.30;5.47;;;;;;;;;;4956286;28;20078;-69
2022/02/19 07:13:11;;;;;;;6.97;4.00;;;;;;;;;;4956410;28;20047;-69
2022/02/19 07:15:41;;;;;;;10.65;5.00;;;;;;;;;;4941130;28;20051;-70
2022/02/19 07:18:18;;;;;;;11.15;5.03;;;;;;;;;;4956529;28;20065;-70
2022/02/19 07:21:09;;;;;;;9.85;5.50;;;;;;;;;;4973414;28;20455;-71
2022/02/19 07:23:38;;;;;;;10.70;6.30;;;;;;;;;;4956330;28;20097;-69
2022/02/19 07:26:08;;;;;;;10.02;5.50;;;;;;;;;;4964354;23;20043;-70
2022/02/19 07:28:39;;;;;;;7.78;4.85;;;;;;;;;;4934200;29;20103;-71
2022/02/19 07:31:10;;;;;;;8.57;4.78;;;;;;;;;;4935456;29;20040;-69
2022/02/19 07:33:38;;;;;;;7.45;4.63;;;;;;;;;;4935313;29;20115;-69
2022/02/19 07:36:14;;;;;;;8.50;4.50;;;;;;;;;;4918009;29;20503;-70
2022/02/19 07:38:42;;;;;;;5.93;3.65;;;;;;;;;;4918328;29;20044;-69
2022/02/19 07:41:10;;;;;;;7.20;4.20;;;;;;;;;;4917916;29;20052;-71
2022/02/19 07:43:56;;;;;;;8.02;3.92;;;;;;;;;;4904541;29;20099;-70
2022/02/19 07:47:04;;;;;;;10.50;4.38;;;;;;;;;;4895379;29;20088;-72
2022/02/19 07:58:37;;;;;;;9.68;3.97;;;;;;;;;;4897914;29;20180;-69
2022/02/19 08:01:05;;;;;;;4.63;3.22;;;;;;;;;;4898449;29;20078;-70
2022/02/19 08:03:41;;;;;;;9.07;3.30;;;;;;;;;;4897118;29;20135;-70
2022/02/19 08:06:14;;;;;;;7.25;3.90;;;;;;;;;;4897957;29;20135;-72
2022/02/19 08:08:43;;;;;;;7.45;3.70;;;;;;;;;;4898021;29;20146;-70
2022/02/19 08:11:15;;;;;;;8.40;4.00;;;;;;;;;;4898223;29;20161;-69
2022/02/19 08:13:46;;;;;;;9.40;4.05;;;;;;;;;;4896808;29;20485;-71
2022/02/19 08:16:13;;;;;;;7.05;4.32;;;;;;;;;;4897340;29;20076;-68
2022/02/19 08:18:42;;;;;;;9.23;5.05;;;;;;;;;;4922537;29;20055;-69
2022/02/19 08:21:10;;;;;;;6.88;4.22;;;;;;;;;;4919124;29;20048;-68
2022/02/19 08:23:40;;;;;;;7.95;4.15;;;;;;;;;;4918935;29;20056;-71
2022/02/19 08:26:07;;;;;;;5.93;4.03;;;;;;;;;;4926830;29;20067;-69
2022/02/19 08:28:38;;;;;;;8.63;4.55;;;;;;;;;;4901923;29;20139;-71
2022/02/19 08:31:05;;;;;;;13.75;5.50;;;;;;;;;;4918833;29;20408;-70
2022/02/19 08:33:33;;;;;;;9.52;4.40;;;;;;;;;;4918415;29;20049;-70
2022/02/19 08:36:00;;;;;;;8.10;4.50;;;;;;;;;;4918571;29;20040;-69
2022/02/19 08:38:28;;;;;;;7.68;4.63;;;;;;;;;;4918874;29;20083;-68
2022/02/19 08:40:57;;;;;;;11.05;4.70;;;;;;;;;;4918684;29;20040;-70
2022/02/19 08:43:24;;;;;;;9.05;4.75;;;;;;;;;;4918401;29;20040;-70
2022/02/19 08:45:52;;;;;;;17.20;12.88;;;;;;;;;;4918222;29;20044;-68
2022/02/19 08:48:20;;;;;;;8.57;5.85;;;;;;;;;;4901641;29;20044;-69
2022/02/19 08:50:49;;;;;;;10.43;6.25;;;;;;;;;;4918669;29;20411;-69
2022/02/19 08:53:16;;;;;;;11.13;6.43;;;;;;;;;;4918269;29;20052;-68
2022/02/19 08:55:44;;;;;;;12.85;7.07;;;;;;;;;;4918411;29;20174;-69
2022/02/19 08:58:17;;;;;;;10.05;6.68;;;;;;;;;;4918090;29;20052;-70
2022/02/19 09:00:46;;;;;;;14.18;7.13;;;;;;;;;;4918396;29;20036;-70
2022/02/19 09:03:16;;;;;;;12.98;7.05;;;;;;;;;;4917936;29;20044;-69
2022/02/19 09:05:44;;;;;;;10.23;6.38;;;;;;;;;;4918594;29;20068;-69
2022/02/19 09:08:13;;;;;;;12.65;7.35;;;;;;;;;;4918407;29;20072;-70
2022/02/19 09:10:41;;;;;;;12.80;6.78;;;;;;;;;;4917857;29;20051;-69
2022/02/19 09:13:08;;;;;;;11.48;6.28;;;;;;;;;;4917993;29;20488;-69
2022/02/19 09:15:38;;;;;;;11.85;5.68;;;;;;;;;;4918276;29;20135;-69
2022/02/19 09:18:07;;;;;;;8.40;4.97;;;;;;;;;;4918196;29;20040;-71
2022/02/19 09:20:35;;;;;;;7.47;5.15;;;;;;;;;;4901262;29;20067;-69
2022/02/19 09:23:03;;;;;;;12.88;5.25;;;;;;;;;;4917990;29;20122;-70
2022/02/19 09:25:30;;;;;;;10.90;5.95;;;;;;;;;;4918252;29;20127;-69
2022/02/19 09:28:01;;;;;;;8.38;5.65;;;;;;;;;;4916771;29;20048;-70
2022/02/19 09:30:29;;;;;;;11.50;7.18;;;;;;;;;;4907192;29;20050;-71
2022/02/19 09:33:00;;;;;;;11.20;6.63;;;;;;;;;;4935641;29;20052;-69
2022/02/19 09:35:29;;;;;;;8.98;5.43;;;;;;;;;;4935849;29;20043;-69
2022/02/19 09:37:56;;;;;;;8.07;5.47;;;;;;;;;;4936305;29;20097;-70
2022/02/19 09:40:26;;;;;;;8.25;5.25;;;;;;;;;;4936109;29;20043;-69
2022/02/19 09:42:54;;;;;;;17.95;10.90;;;;;;;;;;4936042;29;20071;-69
2022/02/19 09:45:28;;;;;;;11.30;7.95;;;;;;;;;;4919377;29;20047;-69
2022/02/19 09:47:59;;;;;;;12.65;6.22;;;;;;;;;;4920383;29;20048;-71
2022/02/19 09:50:27;;;;;;;9.95;5.60;;;;;;;;;;4919037;29;20127;-71
2022/02/19 09:52:55;;;;;;;12.68;5.78;;;;;;;;;;4946989;29;20043;-69
2022/02/19 09:55:23;;;;;;;11.75;5.90;;;;;;;;;;4955341;29;20051;-69
2022/02/19 09:57:51;;;;;;;13.35;6.85;;;;;;;;;;4943010;29;20427;-72
2022/02/19 10:00:28;;;;;;;9.27;5.57;;;;;;;;;;4934597;29;20042;-70
2022/02/19 10:02:56;;;;;;;8.50;5.55;;;;;;;;;;4936145;29;20131;-71
2022/02/19 10:05:29;;;;;;;9.02;5.32;;;;;;;;;;4936359;29;20138;-70
2022/02/19 10:08:00;;;;;;;14.07;5.03;;;;;;;;;;4934793;29;20035;-70
2022/02/19 10:10:35;;;;;;;13.23;5.53;;;;;;;;;;4935566;29;20043;-71
2022/02/19 10:13:27;;;;;;;11.98;5.35;;;;;;;;;;4934911;29;20685;-70
2022/02/19 10:15:55;;;;;;;9.45;4.90;;;;;;;;;;4919213;29;20054;-70
2022/02/19 10:18:23;;;;;;;8.35;5.20;;;;;;;;;;4935044;29;20537;-70
2022/02/19 10:20:52;;;;;;;11.27;5.97;;;;;;;;;;4935349;29;20039;-70
2022/02/19 10:23:20;;;;;;;12.80;6.10;;;;;;;;;;4935119;29;20044;-68
2022/02/19 10:26:02;;;;;;;9.15;5.68;;;;;;;;;;4935684;29;20040;-69
2022/02/19 10:28:29;;;;;;;8.93;5.57;;;;;;;;;;4935858;29;20071;-70
2022/02/19 10:30:57;;;;;;;7.88;5.13;;;;;;;;;;4932322;29;20039;-69
2022/02/19 10:33:25;;;;;;;8.55;5.70;;;;;;;;;;4934900;29;20103;-69
2022/02/19 10:35:55;;;;;;;6.65;5.25;;;;;;;;;;4935737;29;20040;-70
2022/02/19 10:38:22;;;;;;;7.80;4.82;;;;;;;;;;4934381;29;20051;-69
2022/02/19 10:40:52;;;;;;;9.32;4.97;;;;;;;;;;4920826;29;20032;-68
2022/02/19 10:43:26;;;;;;;7.63;4.80;;;;;;;;;;4915548;29;20131;-70
2022/02/19 10:45:57;;;;;;;7.78;5.10;;;;;;;;;;4933998;29;20047;-70
2022/02/19 10:48:26;;;;;;;7.03;4.38;;;;;;;;;;4935191;29;20071;-68
2022/02/19 10:51:15;;;;;;;7.47;4.63;;;;;;;;;;4934758;29;20051;-70
2022/02/19 10:53:55;;;;;;;7.60;4.75;;;;;;;;;;4916278;29;20127;-69
2022/02/19 10:56:25;;;;;;;6.93;4.20;;;;;;;;;;4916092;29;20059;-69
2022/02/19 10:59:05;;;;;;;6.32;4.15;;;;;;;;;;4916075;29;20429;-68
2022/02/19 11:01:43;;;;;;;6.63;3.97;;;;;;;;;;4916091;29;20044;-70
2022/02/19 11:04:12;;;;;;;7.53;4.60;;;;;;;;;;4916349;29;20079;-69
2022/02/19 11:06:40;;;;;;;10.25;4.20;;;;;;;;;;4915553;29;20091;-70
2022/02/19 11:09:10;;;;;;;5.72;3.92;;;;;;;;;;4913041;29;20048;-70
2022/02/19 11:11:44;;;;;;;11.40;4.20;;;;;;;;;;4916110;29;20608;-68
2022/02/19 11:14:13;;;;;;;6.65;3.60;;;;;;;;;;4916107;29;20541;-68
2022/02/19 11:16:43;;;;;;;8.30;3.45;;;;;;;;;;4916325;29;20421;-69
2022/02/19 11:19:15;;;;;;;6.45;3.72;;;;;;;;;;4920455;29;20126;-69
2022/02/19 11:21:44;;;;;;;10.38;5.10;;;;;;;;;;4933825;29;20031;-68
2022/02/19 11:24:12;;;;;;;6.97;4.30;;;;;;;;;;4934655;29;20123;-68
2022/02/19 11:26:40;;;;;;;7.97;4.50;;;;;;;;;;4937319;29;20056;-71
2022/02/19 11:29:12;;;;;;;6.68;3.30;;;;;;;;;;4938449;29;20134;-70
2022/02/19 11:31:39;;;;;;;6.80;3.50;;;;;;;;;;4938239;29;20051;-68
2022/02/19 11:34:08;;;;;;;5.60;3.60;;;;;;;;;;4937755;29;20051;-69
2022/02/19 11:36:35;;;;;;;8.07;4.40;;;;;;;;;;4938326;29;20130;-68
2022/02/19 11:39:06;;;;;;;6.38;4.40;;;;;;;;;;4938417;29;20048;-69
2022/02/19 11:41:42;;;;;;;7.30;4.47;;;;;;;;;;4938386;29;20075;-68
2022/02/19 11:44:17;;;;;;;8.45;4.40;;;;;;;;;;4921558;29;20514;-68
2022/02/19 11:46:48;;;;;;;11.27;5.45;;;;;;;;;;4929594;29;20127;-68
2022/02/19 11:49:26;;;;;;;7.85;4.07;;;;;;;;;;4927977;29;20044;-68
2022/02/19 11:52:12;;;;;;;9.77;4.00;;;;;;;;;;4932153;29;20047;-68
2022/02/19 11:55:21;;;;;;;7.32;4.20;;;;;;;;;;4937901;29;20040;-68
2022/02/19 11:58:00;;;;;;;8.88;4.32;;;;;;;;;;4918941;29;20055;-69
2022/02/19 12:00:46;;;;;;;9.75;5.03;;;;;;;;;;4919124;29;20054;-67
2022/02/19 12:03:35;;;;;;;9.63;5.10;;;;;;;;;;4920387;29;20047;-68
2022/02/19 12:06:05;;;;;;;12.77;6.68;;;;;;;;;;4935794;29;20056;-70
2022/02/19 12:08:45;;;;;;;9.43;4.47;;;;;;;;;;4934719;29;20047;-69
2022/02/19 12:11:19;;;;;;;7.82;3.75;;;;;;;;;;4934420;29;20096;-68
2022/02/19 12:13:54;;;;;;;6.30;3.30;;;;;;;;;;4937582;29;20036;-69
2022/02/19 12:16:31;;;;;;;4.60;3.65;;;;;;;;;;4935675;29;20038;-70
2022/02/19 12:19:03;;;;;;;4.38;2.85;;;;;;;;;;4935317;29;20067;-69
2022/02/19 12:21:31;;;;;;;8.38;4.40;;;;;;;;;;4937119;29;20115;-68
2022/02/19 12:24:12;;;;;;;4.72;3.08;;;;;;;;;;4937904;29;20396;-68
2022/02/19 12:27:08;;;;;;;4.88;4.30;;;;;;;;;;4929695;29;20052;-69
2022/02/19 12:29:46;;;;;;;8.48;3.45;;;;;;;;;;4903729;29;20040;-69
2022/02/19 12:32:19;;;;;;;6.72;3.83;;;;;;;;;;4927582;29;20148;-68
2022/02/19 12:34:49;;;;;;;4.95;3.00;;;;;;;;;;4921397;29;20056;-68
2022/02/19 12:37:20;;;;;;;11.55;3.80;;;;;;;;;;4924653;29;20060;-68
2022/02/19 12:39:50;;;;;;;9.68;3.65;;;;;;;;;;4928940;29;20067;-68
2022/02/19 12:42:20;;;;;;;8.23;3.53;;;;;;;;;;4933802;29;20075;-69
2022/02/19 12:45:05;;;;;;;6.30;3.58;;;;;;;;;;4937642;29;20051;-69
2022/02/19 12:47:33;;;;;;;6.38;3.20;;;;;;;;;;4931034;29;20048;-69
2022/02/19 12:50:09;;;;;;;6.90;3.00;;;;;;;;;;4918482;29;20492;-68
2022/02/19 12:52:37;;;;;;;4.25;2.85;;;;;;;;;;4918691;29;20107;-69
2022/02/19 12:55:09;;;;;;;5.22;2.90;;;;;;;;;;4918262;29;20048;-68
2022/02/19 12:57:39;;;;;;;3.58;2.42;;;;;;;;;;4917566;29;20096;-69
2022/02/19 13:00:09;;;;;;;4.38;2.65;;;;;;;;;;4918248;29;20055;-68
2022/02/19 13:02:37;;;;;;;3.03;2.30;;;;;;;;;;4918674;29;20388;-68
2022/02/19 13:05:09;;;;;;;8.60;3.33;;;;;;;;;;4918063;29;20044;-69
2022/02/19 13:07:37;;;;;;;6.97;2.50;;;;;;;;;;4918012;29;20051;-69
2022/02/19 13:10:07;;;;;;;7.53;2.80;;;;;;;;;;4917818;29;20044;-68
2022/02/19 13:12:39;;;;;;;10.40;2.75;;;;;;;;;;4932726;29;20050;-69
2022/02/19 13:15:09;;;;;;;7.28;2.67;;;;;;;;;;4933401;29;20039;-68
2022/02/19 13:17:39;;;;;;;5.00;2.40;;;;;;;;;;4934839;29;20419;-69
2022/02/19 13:20:07;;;;;;;9.50;2.80;;;;;;;;;;4933391;29;20043;-69
2022/02/19 13:22:37;;;;;;;5.05;2.30;;;;;;;;;;4935352;29;20487;-68
2022/02/19 13:25:09;;;;;;;6.75;3.13;;;;;;;;;;4935689;29;20032;-69
2022/02/19 13:27:37;;;;;;;6.40;2.53;;;;;;;;;;4934655;29;20550;-70
2022/02/19 13:30:08;;;;;;;5.63;2.75;;;;;;;;;;4918448;29;20098;-69
2022/02/19 13:32:39;;;;;;;8.52;2.67;;;;;;;;;;4918585;29;20043;-69
2022/02/19 13:35:26;;;;;;;5.65;2.55;;;;;;;;;;4918848;29;20523;-69
2022/02/19 13:37:57;;;;;;;8.80;2.50;;;;;;;;;;4935046;29;20070;-68
2022/02/19 13:40:28;;;;;;;6.60;2.65;;;;;;;;;;4918297;29;20055;-69
2022/02/19 13:43:12;;;;;;;6.90;2.70;;;;;;;;;;4935179;29;20047;-69
2022/02/19 13:45:48;;;;;;;5.47;2.63;;;;;;;;;;4934640;29;20399;-69
2022/02/19 13:48:20;;;;;;;5.25;2.47;;;;;;;;;;4933163;29;20542;-68
2022/02/19 13:50:50;;;;;;;4.95;2.50;;;;;;;;;;4931906;29;20095;-69
2022/02/19 13:53:21;;;;;;;3.88;2.30;;;;;;;;;;4932741;29;20529;-70
2022/02/19 13:55:54;;;;;;;3.72;2.33;;;;;;;;;;4933163;29;20110;-69
2022/02/19 13:58:44;;;;;;;4.47;2.22;;;;;;;;;;4934118;29;20106;-69
2022/02/19 14:01:16;;;;;;;3.72;2.10;;;;;;;;;;4932943;29;20063;-69
2022/02/19 14:03:49;;;;;;;5.60;2.60;;;;;;;;;;4935188;29;20043;-69
2022/02/19 14:06:29;;;;;;;4.78;2.65;;;;;;;;;;4933593;29;20070;-69
2022/02/19 14:09:13;;;;;;;7.03;2.60;;;;;;;;;;4917223;29;20052;-69
2022/02/19 14:11:57;;;;;;;6.57;2.65;;;;;;;;;;4934772;29;20612;-69
2022/02/19 14:14:30;;;;;;;6.70;3.05;;;;;;;;;;4934600;29;20127;-69
2022/02/19 14:17:02;;;;;;;6.25;2.60;;;;;;;;;;4933937;29;20048;-70
2022/02/19 14:19:30;;;;;;;6.15;2.63;;;;;;;;;;4935520;29;20079;-69
2022/02/19 14:22:10;;;;;;;5.88;2.88;;;;;;;;;;4934437;29;20091;-69
2022/02/19 14:24:57;;;;;;;6.00;2.70;;;;;;;;;;4933382;29;20588;-70
2022/02/19 14:27:25;;;;;;;9.30;2.85;;;;;;;;;;4933991;29;20064;-69
2022/02/19 14:29:57;;;;;;;7.72;2.67;;;;;;;;;;4932736;29;20040;-69
2022/02/19 14:32:26;;;;;;;9.55;2.85;;;;;;;;;;4935286;29;20127;-70
2022/02/19 14:34:54;;;;;;;5.25;2.90;;;;;;;;;;4934854;29;20043;-69
2022/02/19 14:37:21;;;;;;;11.57;2.80;;;;;;;;;;4935080;29;20044;-70
2022/02/19 14:39:48;;;;;;;5.47;2.55;;;;;;;;;;4935283;29;20126;-69
2022/02/19 14:42:21;;;;;;;7.28;3.05;;;;;;;;;;4932855;29;20554;-69
2022/02/19 14:44:50;;;;;;;7.95;2.83;;;;;;;;;;4934899;29;20035;-69
2022/02/19 14:47:18;;;;;;;7.78;3.45;;;;;;;;;;4932676;29;20095;-69
2022/02/19 14:49:48;;;;;;;9.38;2.95;;;;;;;;;;4935033;29;20436;-70
2022/02/19 14:52:16;;;;;;;8.45;3.03;;;;;;;;;;4934969;29;20055;-70
2022/02/19 14:54:44;;;;;;;8.77;3.10;;;;;;;;;;4934931;29;20096;-69
2022/02/19 14:57:12;;;;;;;8.48;3.22;;;;;;;;;;4934843;29;20082;-70
2022/02/19 14:59:40;;;;;;;6.70;3.08;;;;;;;;;;4932329;29;20036;-69
2022/02/19 15:02:07;;;;;;;7.68;3.00;;;;;;;;;;4938363;29;20043;-70
2022/02/19 15:04:36;;;;;;;8.07;3.30;;;;;;;;;;4938636;29;20044;-69
2022/02/19 15:07:03;;;;;;;11.35;3.53;;;;;;;;;;4936161;29;20430;-70
2022/02/19 15:09:31;;;;;;;9.20;3.08;;;;;;;;;;4921949;29;20126;-70
2022/02/19 15:12:08;;;;;;;6.70;3.13;;;;;;;;;;4933280;29;20046;-70
2022/02/19 15:14:36;;;;;;;7.60;3.00;;;;;;;;;;4938483;29;20052;-70
2022/02/19 15:17:04;;;;;;;10.68;3.45;;;;;;;;;;4938632;29;20158;-70